Time;durP1;ratioP1;P1;durP2;ratioP2;P2;SDS_P1;SDS_P2;PMS_P1;PMS_P2;Temp;Humidity;BMP_temperature;BMP_pressure;BME280_temperature;BME280_humidity;BME280_pressure;Samples;Min_cycle;Max_cycle;Signal;HPM_P1;HPM_P2
2021/09/05 00:01:03;;;;;;;18.33;11.45;;;;;;;10.10;86.45;101142.16;5005322;28;20042;-81
2021/09/05 00:03:29;;;;;;;18.55;12.20;;;;;;;10.07;87.11;101139.50;5004224;28;20041;-81
2021/09/05 00:05:54;;;;;;;16.60;11.25;;;;;;;10.06;86.11;101135.13;5005709;28;20041;-81
2021/09/05 00:08:19;;;;;;;14.65;11.25;;;;;;;10.05;86.29;101140.38;4990666;28;20041;-81
2021/09/05 00:10:45;;;;;;;13.77;9.93;;;;;;;10.02;85.75;101138.59;5007604;28;20481;-80
2021/09/05 00:13:10;;;;;;;16.27;10.20;;;;;;;9.97;85.53;101139.47;5006360;28;20632;-81
2021/09/05 00:15:35;;;;;;;17.25;11.68;;;;;;;9.92;86.04;101134.16;5003025;28;20165;-81
2021/09/05 00:18:01;;;;;;;14.77;10.25;;;;;;;9.94;86.01;101131.53;5008321;28;20069;-81
2021/09/05 00:20:26;;;;;;;15.35;10.85;;;;;;;9.93;85.88;101130.66;5005368;28;20038;-81
2021/09/05 00:22:52;;;;;;;14.70;9.95;;;;;;;10.02;85.45;101132.47;5005376;28;20093;-81
2021/09/05 00:25:17;;;;;;;16.17;10.65;;;;;;;10.00;85.35;101135.06;5007854;28;20117;-81
2021/09/05 00:27:42;;;;;;;15.38;11.02;;;;;;;9.94;85.62;101127.13;4992610;28;20151;-81
2021/09/05 00:30:08;;;;;;;15.00;10.80;;;;;;;9.93;85.72;101137.66;5005508;28;20550;-81
2021/09/05 00:32:35;;;;;;;16.85;11.27;;;;;;;9.85;86.00;101140.25;4994434;28;20041;-81
2021/09/05 00:35:00;;;;;;;14.05;10.63;;;;;;;9.82;85.85;101138.50;5005920;28;20033;-81
2021/09/05 00:37:26;;;;;;;15.57;10.50;;;;;;;9.83;85.45;101142.00;4990973;28;20104;-81
2021/09/05 00:39:52;;;;;;;15.02;10.77;;;;;;;9.79;85.92;101137.59;5007435;28;20493;-80
2021/09/05 00:42:22;;;;;;;13.60;9.20;;;;;;;9.81;86.09;101138.47;5005813;28;20038;-81
2021/09/05 00:44:47;;;;;;;13.85;9.35;;;;;;;9.76;85.83;101138.44;5005533;28;20555;-81
2021/09/05 00:47:13;;;;;;;12.57;9.75;;;;;;;9.73;85.94;101145.47;5002311;28;20058;-81
2021/09/05 00:49:38;;;;;;;13.40;8.23;;;;;;;9.70;86.17;101140.16;4996488;28;20048;-81
2021/09/05 00:52:04;;;;;;;10.88;7.85;;;;;;;9.71;86.07;101139.28;5004704;28;20685;-81
2021/09/05 00:54:30;;;;;;;14.75;9.82;;;;;;;9.68;85.81;101134.88;5005177;28;20137;-81
2021/09/05 00:56:55;;;;;;;13.98;9.10;;;;;;;9.59;86.44;101140.97;4987326;28;20077;-81
2021/09/05 00:59:24;;;;;;;15.15;9.73;;;;;;;9.57;86.81;101139.19;5004858;28;20088;-81
2021/09/05 01:01:50;;;;;;;13.95;9.90;;;;;;;9.59;86.30;101140.97;5004921;28;20030;-82
2021/09/05 01:04:16;;;;;;;14.32;9.38;;;;;;;9.61;86.13;101141.84;4993726;28;20030;-83
2021/09/05 01:06:42;;;;;;;15.13;11.27;;;;;;;9.44;87.37;101140.84;4986118;28;20097;-82
2021/09/05 01:09:10;;;;;;;15.90;10.23;;;;;;;9.40;87.55;101145.19;5004527;28;20040;-83
2021/09/05 01:11:37;;;;;;;14.52;9.48;;;;;;;9.46;86.92;101148.75;5003480;28;20038;-83
2021/09/05 01:14:05;;;;;;;12.15;8.57;;;;;;;9.50;86.72;101151.41;4986320;28;20041;-83
2021/09/05 01:16:36;;;;;;;14.35;10.25;;;;;;;9.54;85.76;101157.63;5005406;28;20034;-83
2021/09/05 01:19:22;;;;;;;12.75;8.10;;;;;;;9.43;85.91;101157.50;5005985;28;20526;-83
2021/09/05 01:22:06;;;;;;;14.02;8.85;;;;;;;9.35;86.71;101154.84;5004378;28;20092;-83
2021/09/05 01:25:00;;;;;;;12.70;7.60;;;;;;;9.37;86.36;101160.09;4964796;28;20040;-83
2021/09/05 01:27:44;;;;;;;11.85;8.10;;;;;;;9.38;86.02;101159.25;5001556;28;20054;-81
2021/09/05 01:30:28;;;;;;;13.68;9.30;;;;;;;9.38;85.88;101164.50;5006556;28;20045;-80
2021/09/05 01:33:19;;;;;;;14.15;8.80;;;;;;;9.39;86.19;101164.50;5006277;28;20116;-81
2021/09/05 01:36:07;;;;;;;12.02;8.45;;;;;;;9.37;85.59;101168.00;5006302;28;20516;-80
2021/09/05 01:39:12;;;;;;;15.18;9.50;;;;;;;9.33;86.43;101172.38;4992963;28;20096;-81
2021/09/05 01:41:56;;;;;;;14.18;9.35;;;;;;;9.32;86.42;101167.06;4995982;28;20946;-81
2021/09/05 01:44:40;;;;;;;12.77;8.55;;;;;;;9.40;86.67;101162.75;5003583;28;20088;-81
2021/09/05 01:47:28;;;;;;;16.98;10.63;;;;;;;9.42;85.29;101171.56;5002139;28;20050;-80
2021/09/05 01:50:12;;;;;;;15.52;9.82;;;;;;;9.53;85.62;101171.66;5006492;28;20434;-81
2021/09/05 01:52:57;;;;;;;15.15;8.63;;;;;;;9.64;85.79;101169.97;5006365;28;20092;-81
2021/09/05 01:55:41;;;;;;;34.35;13.65;;;;;;;9.72;85.97;101172.66;5003910;28;20045;-81
2021/09/05 01:58:32;;;;;;;24.35;13.27;;;;;;;9.76;86.21;101179.75;5003376;28;20042;-80
2021/09/05 02:01:16;;;;;;;18.20;12.88;;;;;;;9.70;87.16;101177.94;5002062;28;20421;-81
2021/09/05 02:04:05;;;;;;;25.40;14.80;;;;;;;9.76;87.00;101179.75;4970036;28;20112;-83
2021/09/05 02:06:50;;;;;;;41.40;13.85;;;;;;;9.85;86.82;101182.44;5001893;28;20052;-83
2021/09/05 02:09:34;;;;;;;37.95;13.48;;;;;;;9.85;86.53;101178.06;5004054;28;20053;-83
2021/09/05 02:12:15;;;;;;;42.22;15.52;;;;;;;9.84;87.68;101167.50;4984309;28;20046;-83
2021/09/05 02:14:50;;;;;;;28.65;12.93;;;;;;;9.89;87.37;101176.31;4987133;28;20041;-82
2021/09/05 02:17:40;;;;;;;19.75;12.57;;;;;;;9.85;88.24;101175.44;4989806;28;20034;-82
2021/09/05 02:20:25;;;;;;;22.02;13.23;;;;;;;9.94;88.37;101182.50;5005480;28;20046;-83
2021/09/05 02:23:05;;;;;;;23.85;13.63;;;;;;;9.96;88.73;101180.78;4984434;28;20030;-83
2021/09/05 02:26:02;;;;;;;22.55;12.75;;;;;;;9.95;89.19;101178.13;4984379;28;20037;-83
2021/09/05 02:28:53;;;;;;;28.95;14.32;;;;;;;9.98;89.15;101181.69;5002150;28;20094;-83
2021/09/05 02:31:52;;;;;;;23.15;11.98;;;;;;;10.06;88.42;101177.31;5004270;28;20136;-80
2021/09/05 02:34:37;;;;;;;137.63;20.08;;;;;;;10.06;87.88;101177.31;5003953;28;20042;-80
2021/09/05 02:37:32;;;;;;;32.90;12.90;;;;;;;9.98;87.75;101175.50;4990030;28;20038;-81
2021/09/05 02:40:15;;;;;;;21.13;12.00;;;;;;;9.81;88.71;101171.00;4997790;28;20030;-80
2021/09/05 02:43:02;;;;;;;31.35;14.43;;;;;;;9.75;89.09;101185.91;4993941;28;20065;-81
2021/09/05 02:45:45;;;;;;;16.52;11.63;;;;;;;9.80;89.29;101186.81;4984018;28;20038;-80
2021/09/05 02:48:29;;;;;;;15.50;11.10;;;;;;;9.91;89.07;101190.41;5002107;28;20052;-80
2021/09/05 02:51:13;;;;;;;14.75;10.60;;;;;;;9.97;88.83;101190.44;5005898;28;20044;-80
2021/09/05 02:54:00;;;;;;;13.10;9.27;;;;;;;10.00;88.44;101190.44;5004498;28;20409;-80
2021/09/05 02:56:58;;;;;;;15.30;9.65;;;;;;;10.07;87.89;101191.38;5004423;28;20050;-81
2021/09/05 02:59:40;;;;;;;;;;;;;;;10.10;87.64;101189.63;4986032;28;20034;-81
2021/09/05 03:02:28;;;;;;;13.98;9.27;;;;;;;10.18;86.27;101196.72;5003129;28;19996;-81
2021/09/05 03:05:27;;;;;;;15.40;10.32;;;;;;;10.21;86.76;101200.25;4980087;28;20038;-81
2021/09/05 03:08:17;;;;;;;13.55;10.10;;;;;;;10.27;86.72;101191.50;4991994;28;20089;-80
2021/09/05 03:11:04;;;;;;;10.98;8.45;;;;;;;10.42;86.75;101190.72;4991344;28;20035;-81
2021/09/05 03:13:52;;;;;;;10.32;9.00;;;;;;;10.52;86.63;101182.88;4971651;28;20050;-80
2021/09/05 03:16:37;;;;;;;16.20;9.32;;;;;;;10.55;85.90;101181.13;5003540;28;20042;-80
2021/09/05 03:19:21;;;;;;;20.35;8.40;;;;;;;10.49;85.48;101179.34;4984647;28;20030;-80
2021/09/05 03:22:14;;;;;;;52.78;12.23;;;;;;;10.51;84.93;101175.84;4983618;28;20398;-81
2021/09/05 03:25:06;;;;;;;46.33;9.70;;;;;;;10.31;84.54;101182.75;4997481;28;20038;-80
2021/09/05 03:27:47;;;;;;;26.85;9.40;;;;;;;10.21;85.02;101188.81;4990777;28;20042;-80
2021/09/05 03:30:32;;;;;;;43.92;9.68;;;;;;;10.13;85.79;101182.63;5005084;28;20034;-80
2021/09/05 03:33:27;;;;;;;29.23;10.82;;;;;;;10.00;85.32;101179.03;4993233;28;20038;-80
2021/09/05 03:36:12;;;;;;;53.10;11.68;;;;;;;9.89;85.44;101173.69;5002460;28;20117;-80
2021/09/05 03:38:56;;;;;;;55.67;12.25;;;;;;;9.82;85.68;101182.41;4984675;28;20027;-81
2021/09/05 03:41:39;;;;;;;102.20;16.42;;;;;;;9.72;86.98;101184.13;5005667;28;20612;-80
2021/09/05 03:44:29;;;;;;;33.88;11.30;;;;;;;9.68;87.44;101194.63;4989854;28;20034;-80
2021/09/05 03:47:30;;;;;;;28.60;11.07;;;;;;;9.63;87.80;101191.94;5002421;28;20047;-80
2021/09/05 03:50:13;;;;;;;24.35;10.48;;;;;;;9.54;88.68;101194.50;4995235;28;20480;-80
2021/09/05 03:52:44;;;;;;;33.45;13.05;;;;;;;9.60;88.32;101192.78;4986220;28;20034;-81
2021/09/05 03:55:12;;;;;;;22.23;11.48;;;;;;;9.51;87.66;101205.91;4983032;28;20385;-80
2021/09/05 03:57:37;;;;;;;11.60;8.18;;;;;;;9.53;88.21;101198.88;4999423;28;20121;-80
2021/09/05 04:00:04;;;;;;;12.77;8.77;;;;;;;9.59;87.95;101196.31;5006688;28;20484;-80
2021/09/05 04:02:40;;;;;;;36.42;12.02;;;;;;;9.48;88.53;101207.59;5008913;28;20042;-80
2021/09/05 04:05:07;;;;;;;13.50;9.13;;;;;;;9.38;88.57;101198.75;5003987;28;20422;-80
2021/09/05 04:07:34;;;;;;;15.25;10.35;;;;;;;9.38;89.00;101198.75;5008497;28;20052;-80
2021/09/05 04:10:09;;;;;;;14.00;9.77;;;;;;;9.43;88.94;101200.56;5005398;28;20396;-80
2021/09/05 04:12:38;;;;;;;16.55;10.82;;;;;;;9.44;88.27;101196.16;5008642;28;20100;-80
2021/09/05 04:15:04;;;;;;;66.68;11.13;;;;;;;9.48;88.04;101200.59;4995511;28;20038;-80
2021/09/05 04:17:29;;;;;;;19.75;10.00;;;;;;;9.52;87.68;101198.88;4991531;28;20038;-80
2021/09/05 04:19:54;;;;;;;14.63;9.10;;;;;;;9.52;87.45;101201.50;5004742;28;20556;-80
2021/09/05 04:22:20;;;;;;;13.35;9.45;;;;;;;9.49;88.03;101201.50;5007526;28;20448;-80
2021/09/05 04:24:45;;;;;;;19.67;8.68;;;;;;;9.49;88.28;101209.41;5007691;28;20485;-80
2021/09/05 04:27:10;;;;;;;8.63;7.20;;;;;;;9.52;88.01;101204.16;4987654;28;20042;-80
2021/09/05 04:29:36;;;;;;;16.58;7.80;;;;;;;9.54;87.83;101210.31;5006514;28;20046;-80
2021/09/05 04:32:01;;;;;;;17.75;8.48;;;;;;;9.64;87.37;101209.50;5006451;28;20034;-80
2021/09/05 04:34:27;;;;;;;16.08;7.85;;;;;;;9.75;86.46;101212.25;5005910;28;20046;-80
2021/09/05 04:36:52;;;;;;;22.23;9.25;;;;;;;9.70;86.59;101211.34;5007105;28;20116;-80
2021/09/05 04:39:17;;;;;;;7.13;6.32;;;;;;;9.75;86.74;101209.63;5005322;28;20141;-80
2021/09/05 04:41:43;;;;;;;15.07;6.95;;;;;;;9.80;86.43;101221.09;4989724;28;20488;-80
2021/09/05 04:44:08;;;;;;;11.35;7.78;;;;;;;9.72;86.46;101223.66;5003854;28;20038;-81
2021/09/05 04:46:33;;;;;;;16.02;7.78;;;;;;;9.64;86.23;101220.97;5003872;28;20038;-80
2021/09/05 04:48:59;;;;;;;9.70;7.43;;;;;;;9.54;86.96;101232.28;5007781;28;20037;-80
2021/09/05 04:51:24;;;;;;;14.50;8.95;;;;;;;9.62;87.54;101235.88;4987576;28;20045;-80
2021/09/05 04:53:49;;;;;;;10.57;8.50;;;;;;;9.77;86.94;101236.84;5006340;28;20038;-80
2021/09/05 04:56:15;;;;;;;10.50;7.72;;;;;;;9.84;86.05;101239.56;5004958;28;20049;-80
2021/09/05 04:58:43;;;;;;;12.68;7.50;;;;;;;9.91;85.51;101242.25;5005783;28;20038;-81
2021/09/05 05:01:08;;;;;;;14.88;7.47;;;;;;;9.97;85.59;101245.81;4987820;28;20034;-80
2021/09/05 05:03:33;;;;;;;19.15;7.35;;;;;;;10.06;85.30;101238.00;5004377;28;20065;-80
2021/09/05 05:05:59;;;;;;;12.75;7.70;;;;;;;10.14;84.99;101243.31;5006168;28;20412;-80
2021/09/05 05:08:24;;;;;;;21.42;7.05;;;;;;;10.19;84.95;101240.69;4992447;28;20501;-80
2021/09/05 05:10:49;;;;;;;8.05;6.90;;;;;;;10.15;84.93;101247.72;5007486;28;20052;-80
2021/09/05 05:13:14;;;;;;;11.63;7.25;;;;;;;10.22;84.32;101251.28;4989532;28;20340;-80
2021/09/05 05:15:40;;;;;;;42.65;7.72;;;;;;;10.27;84.38;101246.88;4992474;28;20049;-80
2021/09/05 05:18:05;;;;;;;22.30;7.28;;;;;;;10.34;83.98;101251.38;5006648;28;20042;-80
2021/09/05 05:20:30;;;;;;;13.52;6.65;;;;;;;10.38;83.57;101258.44;4986638;28;20038;-80
2021/09/05 05:22:56;;;;;;;18.98;7.53;;;;;;;10.39;83.15;101259.31;5005683;28;20038;-81
2021/09/05 05:25:21;;;;;;;21.85;7.20;;;;;;;10.42;83.17;101257.56;5004593;28;20041;-81
2021/09/05 05:27:47;;;;;;;13.48;7.78;;;;;;;10.39;83.03;101264.59;5003802;28;20531;-80
2021/09/05 05:30:12;;;;;;;23.30;8.30;;;;;;;10.43;83.70;101258.50;4988066;28;20037;-80
2021/09/05 05:32:37;;;;;;;9.90;7.53;;;;;;;10.48;83.40;101264.69;4992136;28;20030;-81
2021/09/05 05:35:03;;;;;;;23.05;8.65;;;;;;;10.60;83.61;101264.72;5006320;28;20042;-80
2021/09/05 05:37:29;;;;;;;13.88;8.57;;;;;;;10.65;83.09;101262.13;4988076;28;20038;-81
2021/09/05 05:39:54;;;;;;;10.57;7.13;;;;;;;10.77;83.76;101256.00;5002142;28;20093;-81
2021/09/05 05:42:19;;;;;;;15.77;7.25;;;;;;;10.85;82.89;101259.59;5002044;28;20030;-81
2021/09/05 05:44:45;;;;;;;16.88;7.38;;;;;;;10.88;82.68;101260.47;4996126;28;20400;-81
2021/09/05 05:47:10;;;;;;;8.00;6.15;;;;;;;10.86;82.55;101266.63;5005981;28;20396;-81
2021/09/05 05:49:38;;;;;;;11.95;6.65;;;;;;;10.88;82.85;101272.78;5003617;28;20401;-81
2021/09/05 05:52:05;;;;;;;16.73;7.50;;;;;;;10.95;82.15;101272.84;5004387;28;20030;-81
2021/09/05 05:54:30;;;;;;;7.25;5.82;;;;;;;11.06;82.02;101272.00;5005012;28;20034;-80
2021/09/05 05:56:55;;;;;;;6.60;5.57;;;;;;;11.20;82.11;101278.19;4985536;28;20042;-81
2021/09/05 05:59:20;;;;;;;7.68;6.40;;;;;;;11.28;81.62;101272.94;5003279;28;20049;-81
2021/09/05 06:01:47;;;;;;;8.95;6.07;;;;;;;11.33;81.52;101269.44;4985654;28;20038;-81
2021/09/05 06:04:12;;;;;;;18.27;6.53;;;;;;;11.44;80.89;101271.22;5003457;28;20083;-81
2021/09/05 06:06:39;;;;;;;9.05;6.45;;;;;;;11.38;80.85;101266.81;5002462;28;20034;-81
2021/09/05 06:09:05;;;;;;;7.45;6.32;;;;;;;11.43;80.81;101274.75;5001849;28;20453;-81
2021/09/05 06:11:30;;;;;;;7.25;5.20;;;;;;;11.54;81.12;101278.28;5003920;28;20496;-81
2021/09/05 06:13:55;;;;;;;9.73;6.20;;;;;;;11.60;80.72;101283.56;4993071;28;20125;-81
2021/09/05 06:16:20;;;;;;;7.65;5.78;;;;;;;11.67;80.79;101281.84;5004895;28;20127;-81
2021/09/05 06:18:46;;;;;;;6.95;5.95;;;;;;;11.75;80.63;101275.66;5002062;28;20069;-80
2021/09/05 06:21:11;;;;;;;10.65;6.15;;;;;;;11.81;80.36;101282.72;5003851;28;20070;-81
2021/09/05 06:23:37;;;;;;;7.10;6.10;;;;;;;11.88;80.24;101281.00;5003193;28;20050;-81
2021/09/05 06:26:02;;;;;;;6.95;6.25;;;;;;;11.89;80.00;101285.41;5002689;28;20115;-81
2021/09/05 06:28:27;;;;;;;6.90;5.85;;;;;;;12.06;80.12;101294.22;5003409;28;20081;-81
2021/09/05 06:30:53;;;;;;;8.25;6.82;;;;;;;12.17;79.89;101292.47;5003543;28;20029;-81
2021/09/05 06:33:18;;;;;;;10.40;7.00;;;;;;;12.24;79.70;101291.56;4992092;28;20042;-81
2021/09/05 06:35:43;;;;;;;7.72;6.85;;;;;;;12.39;79.22;101287.13;5001785;28;20101;-81
2021/09/05 06:38:09;;;;;;;7.63;6.20;;;;;;;12.52;79.15;101291.53;5004529;28;20087;-81
2021/09/05 06:40:34;;;;;;;9.70;7.00;;;;;;;12.65;79.48;101282.69;5004317;28;20440;-81
2021/09/05 06:42:59;;;;;;;16.77;7.72;;;;;;;12.79;78.89;101284.41;5005004;28;20057;-81
2021/09/05 06:45:25;;;;;;;9.15;6.82;;;;;;;12.94;78.29;101290.53;5004247;28;20277;-81
2021/09/05 06:47:50;;;;;;;10.90;7.38;;;;;;;12.94;78.45;101290.53;5001728;28;20504;-81
2021/09/05 06:50:15;;;;;;;19.50;8.65;;;;;;;13.00;78.48;101294.94;4993431;28;20030;-81
2021/09/05 06:52:41;;;;;;;10.10;7.13;;;;;;;13.02;78.85;101290.50;4995115;28;20092;-81
2021/09/05 06:55:06;;;;;;;8.82;7.93;;;;;;;13.16;78.84;101301.91;5002696;28;20037;-81
2021/09/05 06:57:32;;;;;;;19.90;8.50;;;;;;;13.23;78.75;101293.94;4993362;28;20034;-81
2021/09/05 06:59:57;;;;;;;11.38;7.43;;;;;;;13.42;78.19;101300.06;5003686;28;20076;-81
2021/09/05 07:02:22;;;;;;;10.38;8.23;;;;;;;13.55;77.57;101299.97;5003667;28;20515;-81
2021/09/05 07:04:48;;;;;;;13.48;9.02;;;;;;;13.62;78.07;101302.59;5005574;28;20046;-81
2021/09/05 07:07:14;;;;;;;9.40;7.15;;;;;;;13.75;77.79;101304.25;5006222;28;20053;-81
2021/09/05 07:09:40;;;;;;;9.68;8.30;;;;;;;13.82;77.95;101300.69;4991794;28;20042;-81
2021/09/05 07:12:05;;;;;;;9.93;8.43;;;;;;;13.96;77.59;101306.78;4994664;28;20037;-81
2021/09/05 07:14:31;;;;;;;14.48;9.13;;;;;;;14.06;77.18;101312.00;4967527;28;20488;-81
2021/09/05 07:16:56;;;;;;;9.90;8.18;;;;;;;14.13;77.24;101305.75;5003273;28;20121;-81
2021/09/05 07:19:21;;;;;;;9.93;8.23;;;;;;;14.15;77.20;101314.59;5001611;28;20110;-81
2021/09/05 07:21:47;;;;;;;9.75;7.55;;;;;;;14.35;77.03;101309.97;4993387;28;20078;-81
2021/09/05 07:24:12;;;;;;;9.82;7.32;;;;;;;14.34;76.76;101316.19;5002323;28;20135;-81
2021/09/05 07:26:38;;;;;;;9.68;7.43;;;;;;;14.20;77.33;101311.00;5002260;28;20034;-81
2021/09/05 07:29:04;;;;;;;10.80;8.68;;;;;;;14.23;77.27;101307.44;4989115;28;20048;-81
2021/09/05 07:31:29;;;;;;;10.23;8.43;;;;;;;14.31;77.59;101318.88;4995733;28;20400;-81
2021/09/05 07:33:55;;;;;;;11.20;7.75;;;;;;;14.40;77.24;101320.56;4989797;28;20042;-81
2021/09/05 07:36:20;;;;;;;11.85;9.00;;;;;;;14.43;77.37;101308.13;4991616;28;20057;-81
2021/09/05 07:38:45;;;;;;;10.88;7.85;;;;;;;14.50;77.51;101321.34;4998334;28;20049;-81
2021/09/05 07:41:13;;;;;;;13.10;9.80;;;;;;;14.45;77.34;101316.97;5007639;28;20041;-81
2021/09/05 07:43:38;;;;;;;12.95;10.73;;;;;;;14.38;77.86;101327.66;5004228;28;20069;-81
2021/09/05 07:46:03;;;;;;;13.70;9.07;;;;;;;14.48;78.44;101324.00;4997237;28;20037;-82
2021/09/05 07:48:29;;;;;;;11.38;9.23;;;;;;;14.70;78.03;101324.72;4998080;28;20156;-81
2021/09/05 07:50:54;;;;;;;15.50;11.15;;;;;;;14.81;77.99;101322.81;5005210;28;20045;-81
2021/09/05 07:53:19;;;;;;;16.33;13.07;;;;;;;14.92;77.89;101328.03;5005789;28;20037;-82
2021/09/05 07:55:45;;;;;;;15.43;10.25;;;;;;;15.01;77.62;101324.38;5004770;28;20050;-82
2021/09/05 07:58:10;;;;;;;12.85;9.90;;;;;;;15.05;77.62;101328.75;5005247;28;20045;-82
2021/09/05 08:00:36;;;;;;;13.27;10.25;;;;;;;15.18;77.08;101326.84;5006542;28;20550;-81
2021/09/05 08:03:01;;;;;;;15.23;10.07;;;;;;;15.30;76.96;101327.56;4991745;28;20488;-82
2021/09/05 08:05:26;;;;;;;12.30;9.40;;;;;;;15.40;76.85;101327.44;4994264;28;20038;-81
2021/09/05 08:07:52;;;;;;;12.18;8.88;;;;;;;15.49;76.90;101328.19;4989895;28;20504;-81
2021/09/05 08:10:17;;;;;;;15.32;10.57;;;;;;;15.52;76.21;101324.63;5003849;28;20123;-82
2021/09/05 08:12:43;;;;;;;13.00;9.68;;;;;;;15.61;76.75;101331.56;5006623;28;20084;-82
2021/09/05 08:15:08;;;;;;;13.43;9.25;;;;;;;15.76;76.71;101332.25;4986714;28;20037;-82
2021/09/05 08:17:33;;;;;;;11.98;9.45;;;;;;;15.86;76.71;101337.47;4995603;28;20092;-81
2021/09/05 08:19:59;;;;;;;13.98;10.05;;;;;;;15.98;76.20;101345.25;5007044;28;20038;-81
2021/09/05 08:22:24;;;;;;;15.00;9.73;;;;;;;16.10;75.73;101336.19;5004953;28;20038;-82
2021/09/05 08:24:49;;;;;;;16.05;12.45;;;;;;;16.18;75.31;101332.50;5004828;28;20038;-81
2021/09/05 08:27:15;;;;;;;16.00;10.95;;;;;;;16.26;75.35;101331.50;5005423;28;20188;-82
2021/09/05 08:29:40;;;;;;;17.08;11.55;;;;;;;16.37;75.48;101340.16;5003725;28;20120;-82
2021/09/05 08:32:06;;;;;;;16.30;11.27;;;;;;;16.36;75.42;101338.44;5006523;28;20041;-82
2021/09/05 08:34:34;;;;;;;16.30;11.30;;;;;;;16.46;75.31;101340.03;4994333;28;20042;-82
2021/09/05 08:37:01;;;;;;;15.32;11.73;;;;;;;16.47;75.49;101341.78;5006534;28;20042;-82
2021/09/05 08:39:27;;;;;;;17.15;11.50;;;;;;;16.53;75.61;101331.03;5007007;28;20041;-82
2021/09/05 08:41:55;;;;;;;20.52;13.68;;;;;;;16.62;75.53;101330.84;5003509;28;20031;-82
2021/09/05 08:44:21;;;;;;;18.20;15.02;;;;;;;16.67;75.88;101335.22;5003145;28;20057;-82
2021/09/05 08:46:47;;;;;;;18.40;13.48;;;;;;;16.82;75.80;101333.19;4996688;28;20026;-82
2021/09/05 08:49:16;;;;;;;19.25;15.00;;;;;;;16.99;75.02;101330.16;4997152;28;20049;-82
2021/09/05 08:51:41;;;;;;;21.33;14.75;;;;;;;17.15;74.96;101329.84;4986093;28;20037;-82
2021/09/05 08:54:06;;;;;;;21.65;15.73;;;;;;;17.30;75.06;101333.09;5005818;28;20066;-82
2021/09/05 08:56:32;;;;;;;21.17;14.90;;;;;;;17.43;74.74;101332.81;4986283;28;20077;-82
2021/09/05 08:58:57;;;;;;;21.50;14.30;;;;;;;17.60;74.48;101330.66;5005080;28;20034;-82
2021/09/05 09:01:29;;;;;;;17.60;12.23;;;;;;;17.80;73.71;101330.22;5004541;28;20042;-82
2021/09/05 09:04:10;;;;;;;18.73;13.60;;;;;;;18.00;72.58;101320.84;4996016;28;20038;-82
2021/09/05 09:06:37;;;;;;;16.52;12.35;;;;;;;18.07;72.45;101327.81;5006704;28;20034;-82
2021/09/05 09:09:04;;;;;;;21.40;13.88;;;;;;;18.23;71.92;101323.84;4989019;28;20076;-82
2021/09/05 09:11:55;;;;;;;23.30;13.68;;;;;;;18.30;70.88;101320.09;5001870;28;20038;-82
2021/09/05 09:14:39;;;;;;;20.27;13.40;;;;;;;18.42;71.10;101315.34;5005127;28;20034;-82
2021/09/05 09:17:05;;;;;;;23.25;14.88;;;;;;;18.50;70.75;101316.91;5006661;28;20323;-82
2021/09/05 09:19:30;;;;;;;20.70;13.40;;;;;;;18.62;71.02;101316.56;4994262;28;20050;-82
2021/09/05 09:21:56;;;;;;;21.23;15.20;;;;;;;18.54;69.55;101315.91;4987878;28;20038;-82
2021/09/05 09:24:23;;;;;;;19.65;14.38;;;;;;;18.57;70.73;101312.25;5001993;28;20038;-82
2021/09/05 09:26:59;;;;;;;21.85;14.35;;;;;;;18.72;69.99;101311.84;5002059;28;20453;-82
2021/09/05 09:29:25;;;;;;;17.95;12.95;;;;;;;18.88;69.59;101311.47;5006201;28;20062;-82
2021/09/05 09:31:59;;;;;;;17.85;13.40;;;;;;;19.06;69.85;101310.94;5003035;28;20038;-81
2021/09/05 09:34:25;;;;;;;20.15;14.30;;;;;;;19.23;69.08;101308.66;4986805;28;20045;-82
2021/09/05 09:36:58;;;;;;;17.17;13.80;;;;;;;19.45;68.40;101303.53;5003221;28;20041;-82
2021/09/05 09:39:26;;;;;;;19.08;13.90;;;;;;;19.55;66.86;101305.94;4986372;28;20145;-82
2021/09/05 09:41:52;;;;;;;17.63;12.63;;;;;;;19.58;67.10;101309.38;4994902;28;20477;-82
2021/09/05 09:44:17;;;;;;;19.75;14.00;;;;;;;19.69;66.48;101311.75;4986878;28;20034;-82
2021/09/05 09:46:46;;;;;;;16.95;12.32;;;;;;;19.64;66.57;101301.13;5001116;28;20041;-83
2021/09/05 09:49:14;;;;;;;16.83;12.38;;;;;;;19.90;67.04;101304.81;5001940;28;20736;-82
2021/09/05 09:51:41;;;;;;;18.23;14.90;;;;;;;20.13;67.30;101302.25;5008650;28;20032;-82
2021/09/05 09:54:07;;;;;;;17.95;12.93;;;;;;;20.21;67.13;101310.03;5005560;28;20045;-83
2021/09/05 09:56:33;;;;;;;19.38;14.10;;;;;;;20.31;66.99;101299.91;5004395;28;20033;-82
2021/09/05 09:59:04;;;;;;;17.02;13.60;;;;;;;20.35;67.42;101296.16;4990786;28;20034;-82
2021/09/05 10:01:32;;;;;;;20.48;14.55;;;;;;;20.47;67.12;101297.56;4995833;28;20045;-83
2021/09/05 10:03:59;;;;;;;18.80;14.00;;;;;;;20.56;66.24;101297.25;5004420;28;20034;-82
2021/09/05 10:06:27;;;;;;;17.33;13.20;;;;;;;20.60;66.48;101298.91;4990643;28;20042;-82
2021/09/05 10:09:00;;;;;;;19.33;15.05;;;;;;;20.55;64.84;101303.56;5005484;28;20037;-82
2021/09/05 10:11:26;;;;;;;19.17;14.93;;;;;;;20.55;65.81;101293.69;5003555;28;20080;-82
2021/09/05 10:13:51;;;;;;;17.38;14.15;;;;;;;20.70;65.90;101294.09;5005756;28;20060;-82
2021/09/05 10:16:17;;;;;;;19.80;15.45;;;;;;;20.85;65.55;101285.47;5004989;28;20496;-82
2021/09/05 10:18:47;;;;;;;19.58;15.77;;;;;;;20.91;65.45;101289.75;4986770;28;20057;-82
2021/09/05 10:21:16;;;;;;;18.25;14.93;;;;;;;21.06;65.24;101286.47;4993228;28;20093;-83
2021/09/05 10:23:47;;;;;;;18.92;15.18;;;;;;;21.16;63.43;101287.88;4986316;28;20459;-82
2021/09/05 10:26:14;;;;;;;19.13;15.85;;;;;;;21.16;62.78;101284.31;4991451;28;20669;-82
2021/09/05 10:28:42;;;;;;;20.40;16.70;;;;;;;21.06;63.37;101288.28;4995679;28;20057;-82
2021/09/05 10:31:10;;;;;;;24.02;17.27;;;;;;;21.09;63.19;101288.16;5003678;28;20415;-82
2021/09/05 10:33:40;;;;;;;18.92;16.27;;;;;;;21.13;62.24;101290.69;4993324;28;20046;-82
2021/09/05 10:36:19;;;;;;;20.33;16.55;;;;;;;21.25;62.88;101286.66;4985845;28;20084;-82
2021/09/05 10:38:46;;;;;;;19.00;15.85;;;;;;;21.37;61.90;101286.16;5004140;28;20046;-82
2021/09/05 10:41:18;;;;;;;21.27;16.08;;;;;;;21.49;60.98;101286.66;4983821;28;20129;-82
2021/09/05 10:43:49;;;;;;;18.67;15.00;;;;;;;21.61;60.78;101283.47;5004975;28;20046;-82
2021/09/05 10:46:17;;;;;;;19.85;14.98;;;;;;;21.70;60.18;101284.94;5000240;28;20056;-82
2021/09/05 10:48:52;;;;;;;18.50;14.82;;;;;;;21.69;58.42;101289.41;4999891;28;20046;-82
2021/09/05 10:51:27;;;;;;;16.98;13.90;;;;;;;21.94;59.65;101283.03;4986148;28;20511;-82
2021/09/05 10:53:59;;;;;;;16.85;14.30;;;;;;;22.09;58.29;101282.41;5002779;28;20042;-82
2021/09/05 10:56:31;;;;;;;16.83;14.63;;;;;;;22.23;58.29;101277.34;5002039;28;20033;-82
2021/09/05 10:59:03;;;;;;;17.15;14.90;;;;;;;22.29;58.29;101274.38;5004142;28;20108;-82
2021/09/05 11:01:31;;;;;;;15.93;13.52;;;;;;;22.34;58.10;101274.19;4983428;28;20042;-82
2021/09/05 11:04:12;;;;;;;17.88;15.57;;;;;;;22.39;57.41;101279.38;5008426;28;20038;-82
2021/09/05 11:06:51;;;;;;;16.20;14.07;;;;;;;22.37;57.45;101270.50;5005302;28;20042;-82
2021/09/05 11:09:20;;;;;;;16.00;14.30;;;;;;;22.38;57.84;101272.25;5008196;28;20038;-82
2021/09/05 11:12:07;;;;;;;16.38;14.55;;;;;;;22.41;56.96;101275.66;5005421;28;20034;-82
2021/09/05 11:14:35;;;;;;;17.25;15.32;;;;;;;22.55;57.95;101277.75;5009213;28;20424;-82
2021/09/05 11:17:07;;;;;;;18.08;16.20;;;;;;;22.70;56.53;101279.75;4997452;28;20034;-82
2021/09/05 11:19:43;;;;;;;17.67;15.77;;;;;;;22.69;56.56;101272.63;4997782;28;20096;-83
2021/09/05 11:22:18;;;;;;;16.95;15.15;;;;;;;22.82;56.27;101281.03;5004168;28;20034;-82
2021/09/05 11:24:44;;;;;;;19.60;15.82;;;;;;;22.95;55.93;101278.63;5012293;28;20041;-82
2021/09/05 11:27:14;;;;;;;18.00;15.13;;;;;;;23.11;56.35;101284.25;5011250;28;20129;-82
2021/09/05 11:29:40;;;;;;;17.95;15.07;;;;;;;23.35;55.38;101282.22;5008917;28;20507;-83
2021/09/05 11:32:11;;;;;;;17.63;15.73;;;;;;;23.56;54.41;101278.47;5011186;28;20388;-82
2021/09/05 11:34:50;;;;;;;17.42;15.63;;;;;;;23.66;53.78;101278.91;5004742;28;20042;-83